Time;durP1;ratioP1;P1;durP2;ratioP2;P2;SDS_P1;SDS_P2;PMS_P1;PMS_P2;Temp;Humidity;BMP_temperature;BMP_pressure;BME280_temperature;BME280_humidity;BME280_pressure;Samples;Min_cycle;Max_cycle;Signal;HPM_P1;HPM_P2
2023/03/25 18:00:17;;;;;;;4.35;1.00;;;;;;;19.36;51.46;100469.50;4988044;27;97006;-75
2023/03/25 18:02:45;;;;;;;3.42;1.65;;;;;;;19.44;51.01;100466.75;4972269;28;96791;-74
2023/03/25 18:05:12;;;;;;;3.45;1.10;;;;;;;19.63;50.63;100471.81;4972860;28;99113;-76
2023/03/25 18:07:38;;;;;;;3.17;1.10;;;;;;;19.79;50.33;100472.78;4974336;28;97845;-77
2023/03/25 18:10:14;;;;;;;1.98;0.95;;;;;;;19.93;50.18;100477.47;4973277;28;96796;-75
2023/03/25 18:12:41;;;;;;;1.98;0.98;;;;;;;20.03;49.92;100480.81;4981435;28;96749;-78
2023/03/25 18:15:09;;;;;;;3.03;0.80;;;;;;;20.11;49.49;100485.41;4978087;28;99026;-77
2023/03/25 18:17:35;;;;;;;4.30;1.15;;;;;;;20.18;49.53;100497.28;4975896;28;97105;-79
2023/03/25 18:20:14;;;;;;;1.85;0.80;;;;;;;20.23;49.23;100484.81;4979201;28;96905;-77
2023/03/25 18:22:41;;;;;;;2.65;1.08;;;;;;;20.32;49.30;100485.59;4973040;28;96958;-81
2023/03/25 18:25:08;;;;;;;3.10;0.85;;;;;;;20.73;49.28;100488.91;4979749;28;98309;-76
2023/03/25 18:27:35;;;;;;;3.03;0.82;;;;;;;21.27;48.75;100496.13;4981861;28;96678;-77
2023/03/25 18:30:24;;;;;;;2.13;0.98;;;;;;;21.56;48.32;100498.91;4981429;28;96664;-77
2023/03/25 18:32:51;;;;;;;2.55;0.82;;;;;;;21.72;48.14;100497.84;4976591;28;96924;-76
2023/03/25 18:35:18;;;;;;;1.58;0.70;;;;;;;21.83;47.76;100494.63;4960150;28;98583;-76
2023/03/25 18:37:47;;;;;;;2.53;0.82;;;;;;;21.95;47.74;100514.13;4976981;28;97422;-78
2023/03/25 18:40:22;;;;;;;1.90;0.90;;;;;;;22.04;47.54;100507.56;4973761;28;98199;-77
2023/03/25 18:42:50;;;;;;;1.98;1.08;;;;;;;22.12;47.44;100513.75;4979301;28;98311;-79
2023/03/25 18:45:19;;;;;;;4.30;1.10;;;;;;;22.20;47.06;100507.31;4973034;28;99591;-81
2023/03/25 18:47:46;;;;;;;2.85;1.10;;;;;;;22.26;46.71;100517.50;4968731;28;97730;-81
2023/03/25 18:50:32;;;;;;;4.85;0.98;;;;;;;22.32;46.73;100513.19;4973286;28;97037;-81
2023/03/25 18:52:59;;;;;;;9.68;1.30;;;;;;;22.36;46.45;100515.31;4975199;28;97075;-81
2023/03/25 18:55:28;;;;;;;1.98;0.70;;;;;;;22.39;46.49;100514.94;4979888;28;96749;-81
2023/03/25 18:57:56;;;;;;;2.05;0.88;;;;;;;22.44;46.07;100522.56;4977613;28;96696;-81
2023/03/25 19:00:29;;;;;;;1.73;0.90;;;;;;;22.47;45.78;100523.03;4984412;28;96660;-81
2023/03/25 19:02:57;;;;;;;2.38;0.70;;;;;;;22.49;45.94;100520.09;4983268;28;96959;-82
2023/03/25 19:05:24;;;;;;;3.10;0.85;;;;;;;22.50;45.86;100528.13;4979175;28;97148;-82
2023/03/25 19:07:52;;;;;;;1.30;0.70;;;;;;;22.54;45.64;100525.00;4957880;28;96913;-83
2023/03/25 19:10:25;;;;;;;2.40;0.77;;;;;;;22.55;45.42;100532.16;4966381;28;97106;-82
2023/03/25 19:12:52;;;;;;;2.05;0.80;;;;;;;22.57;45.28;100535.53;4974821;28;97308;-82
2023/03/25 19:15:20;;;;;;;2.15;0.95;;;;;;;22.58;45.00;100548.19;4965123;28;97005;-82
2023/03/25 19:17:47;;;;;;;1.63;0.80;;;;;;;22.59;45.16;100547.16;4968788;28;97808;-81
2023/03/25 19:20:23;;;;;;;3.67;0.75;;;;;;;22.59;44.81;100550.72;4955181;28;97254;-83
2023/03/25 19:22:51;;;;;;;1.75;0.80;;;;;;;22.60;44.84;100560.63;4957603;28;97209;-83
2023/03/25 19:25:18;;;;;;;3.03;0.80;;;;;;;22.60;44.84;100551.56;4974389;28;96932;-82
2023/03/25 19:27:45;;;;;;;2.72;0.90;;;;;;;22.60;44.66;100551.56;4963763;28;96686;-83
2023/03/25 19:30:15;;;;;;;2.17;0.80;;;;;;;22.62;44.65;100561.28;4977686;28;97365;-83
2023/03/25 19:32:42;;;;;;;2.75;0.70;;;;;;;22.62;44.63;100568.66;4952428;28;97190;-82
2023/03/25 19:35:11;;;;;;;1.65;0.73;;;;;;;22.62;44.58;100571.38;4970515;28;98523;-82
2023/03/25 19:37:45;;;;;;;1.42;0.68;;;;;;;22.62;44.38;100572.25;4958223;28;98664;-82
2023/03/25 19:40:17;;;;;;;2.95;0.60;;;;;;;22.61;44.49;100569.69;4956475;28;97249;-81
2023/03/25 19:42:45;;;;;;;3.80;0.73;;;;;;;22.62;44.43;100565.91;4964862;28;96537;-80
2023/03/25 19:45:12;;;;;;;2.25;0.70;;;;;;;22.60;44.32;100568.84;4965574;28;96703;-81
2023/03/25 19:47:44;;;;;;;1.02;0.60;;;;;;;22.61;44.34;100556.84;4955777;28;96867;-80
2023/03/25 19:50:17;;;;;;;2.55;0.80;;;;;;;22.63;44.01;100564.88;4970760;28;96892;-81
2023/03/25 19:52:46;;;;;;;1.83;0.60;;;;;;;22.63;43.97;100567.63;4952955;28;96870;-80
2023/03/25 19:55:15;;;;;;;1.55;0.70;;;;;;;22.62;43.97;100572.25;4961312;28;99672;-80
2023/03/25 19:57:43;;;;;;;1.77;0.77;;;;;;;22.62;44.03;100566.75;4973600;28;97318;-81
2023/03/25 20:00:19;;;;;;;1.73;0.70;;;;;;;22.62;44.00;100564.03;4956849;28;96749;-81
2023/03/25 20:02:49;;;;;;;1.30;0.60;;;;;;;22.61;43.94;100567.81;4975982;28;96689;-81
2023/03/25 20:05:18;;;;;;;1.98;0.82;;;;;;;22.62;43.62;100568.66;4946786;28;97114;-81
2023/03/25 20:07:51;;;;;;;1.23;0.65;;;;;;;22.62;43.60;100571.38;4954176;28;97659;-83
2023/03/25 20:10:20;;;;;;;1.60;0.70;;;;;;;22.60;43.69;100579.78;4966293;28;96751;-80
2023/03/25 20:12:48;;;;;;;1.27;0.63;;;;;;;22.60;43.83;100578.94;4970935;28;96906;-80
2023/03/25 20:15:20;;;;;;;1.63;0.70;;;;;;;22.60;43.70;100577.06;4973959;28;96987;-81
2023/03/25 20:17:53;;;;;;;1.52;0.60;;;;;;;22.60;43.44;100577.06;4955776;28;98851;-81
2023/03/25 20:20:21;;;;;;;2.25;1.00;;;;;;;22.58;43.53;100579.16;4943830;28;97334;-82
2023/03/25 20:22:47;;;;;;;1.42;0.60;;;;;;;22.58;43.49;100584.63;4969038;28;96798;-80
2023/03/25 20:25:15;;;;;;;1.23;0.60;;;;;;;22.59;43.49;100589.03;4982590;28;98276;-79
2023/03/25 20:27:42;;;;;;;1.63;0.60;;;;;;;22.58;43.35;100591.97;4971108;28;98174;-81
2023/03/25 20:30:12;;;;;;;2.58;0.82;;;;;;;22.58;43.59;100590.09;4969760;28;96905;-82
2023/03/25 20:32:39;;;;;;;1.42;0.55;;;;;;;22.57;43.23;100588.41;4973300;28;97036;-81
2023/03/25 20:35:11;;;;;;;1.48;0.55;;;;;;;22.57;43.52;100591.13;4984649;28;96890;-81
2023/03/25 20:37:40;;;;;;;2.13;0.60;;;;;;;22.57;43.24;100584.81;4972437;28;97844;-81
2023/03/25 20:40:10;;;;;;;1.70;0.70;;;;;;;22.56;43.41;100586.69;4965137;28;96801;-81
2023/03/25 20:42:42;;;;;;;1.23;0.50;;;;;;;22.55;43.28;100582.25;4969196;28;97094;-81
2023/03/25 20:45:11;;;;;;;1.17;0.65;;;;;;;22.55;43.19;100584.16;4969342;28;98498;-82
2023/03/25 20:47:38;;;;;;;1.60;0.52;;;;;;;22.54;42.99;100582.47;4949778;28;98620;-81
2023/03/25 20:50:05;;;;;;;1.60;0.60;;;;;;;22.54;43.19;100577.84;4979152;28;96716;-80
2023/03/25 20:52:33;;;;;;;2.05;0.52;;;;;;;22.52;43.11;100583.50;4970020;28;99103;-81
2023/03/25 20:55:00;;;;;;;0.98;0.60;;;;;;;22.53;43.25;100589.81;4963903;28;96764;-81
2023/03/25 20:57:26;;;;;;;1.10;0.50;;;;;;;22.52;43.15;100588.97;4953794;28;96960;-81
2023/03/25 20:59:53;;;;;;;1.88;0.70;;;;;;;22.50;43.22;100585.59;4952426;28;97557;-80
2023/03/25 21:02:20;;;;;;;1.38;0.40;;;;;;;22.50;43.28;100585.59;4963654;28;97072;-81
2023/03/25 21:04:47;;;;;;;0.90;0.60;;;;;;;22.50;43.10;100593.78;4955122;28;96963;-81
2023/03/25 21:07:17;;;;;;;1.08;0.70;;;;;;;22.50;43.07;100596.53;4983178;28;97800;-81
2023/03/25 21:09:46;;;;;;;1.90;0.55;;;;;;;22.50;43.07;100592.94;4955987;28;96551;-82
2023/03/25 21:12:12;;;;;;;1.75;0.40;;;;;;;22.49;43.22;100589.34;4980255;28;97181;-81
2023/03/25 21:14:40;;;;;;;1.50;0.50;;;;;;;22.50;42.82;100596.53;4968631;28;97697;-81
2023/03/25 21:17:08;;;;;;;1.52;0.70;;;;;;;22.49;42.95;100600.31;4948444;28;98521;-81
2023/03/25 21:19:35;;;;;;;1.63;0.50;;;;;;;22.49;43.04;100608.50;4973107;28;97629;-81
2023/03/25 21:22:02;;;;;;;1.85;0.60;;;;;;;22.49;43.05;100602.19;4970140;28;98285;-81
2023/03/25 21:24:32;;;;;;;1.58;0.60;;;;;;;22.50;42.91;100612.09;4964519;28;98904;-81
2023/03/25 21:27:01;;;;;;;1.40;0.63;;;;;;;22.49;42.76;100611.25;4965749;28;98665;-80
2023/03/25 21:29:28;;;;;;;1.42;0.60;;;;;;;22.48;42.84;100623.25;4957508;28;97505;-80
2023/03/25 21:31:56;;;;;;;1.08;0.40;;;;;;;22.49;42.91;100616.72;4969142;28;98376;-81
2023/03/25 21:34:23;;;;;;;0.82;0.50;;;;;;;22.47;42.81;100617.97;4970896;28;96843;-80
2023/03/25 21:36:50;;;;;;;0.73;0.40;;;;;;;22.47;42.74;100626.16;4981888;28;98576;-80
2023/03/25 21:39:17;;;;;;;0.73;0.43;;;;;;;22.48;42.94;100630.59;4962795;28;97566;-80
2023/03/25 21:41:43;;;;;;;0.90;0.40;;;;;;;22.47;42.52;100624.28;4969707;28;96898;-81
2023/03/25 21:44:11;;;;;;;1.90;0.57;;;;;;;22.47;43.04;100635.22;4962070;28;96753;-80
2023/03/25 21:46:39;;;;;;;0.70;0.40;;;;;;;22.47;42.72;100634.38;4970058;28;100188;-81
2023/03/25 21:49:07;;;;;;;1.70;0.60;;;;;;;22.47;42.58;100640.69;4951886;28;96684;-81
2023/03/25 21:51:41;;;;;;;1.65;0.40;;;;;;;22.48;42.68;100636.06;4969460;28;96825;-81
2023/03/25 21:54:08;;;;;;;0.80;0.45;;;;;;;22.47;42.53;100637.13;4965818;28;97090;-81
2023/03/25 21:56:38;;;;;;;2.70;0.40;;;;;;;22.46;42.79;100630.78;4965789;28;99619;-80
2023/03/25 21:59:05;;;;;;;1.38;0.50;;;;;;;22.47;42.74;100631.63;4961760;28;97359;-80
2023/03/25 22:01:32;;;;;;;0.75;0.43;;;;;;;22.47;42.66;100637.13;4968108;28;96999;-80
2023/03/25 22:04:00;;;;;;;1.15;0.43;;;;;;;22.46;42.43;100639.00;4966319;28;96881;-80
2023/03/25 22:06:29;;;;;;;0.32;0.30;;;;;;;22.46;42.60;100643.63;4970579;28;96856;-81
2023/03/25 22:08:56;;;;;;;0.98;0.32;;;;;;;22.46;42.72;100644.47;4968008;28;96822;-81
2023/03/25 22:11:30;;;;;;;1.05;0.60;;;;;;;22.47;42.66;100645.31;4962615;28;97275;-80
2023/03/25 22:13:57;;;;;;;0.73;0.43;;;;;;;22.45;42.63;100640.03;4979951;28;99569;-80
2023/03/25 22:16:24;;;;;;;0.98;0.50;;;;;;;22.45;42.79;100639.19;4952912;28;98531;-80
2023/03/25 22:18:52;;;;;;;0.70;0.40;;;;;;;22.45;42.58;100650.13;4962559;28;96987;-80
2023/03/25 22:21:20;;;;;;;0.98;0.30;;;;;;;22.45;42.44;100644.66;4965509;28;97297;-81
2023/03/25 22:23:48;;;;;;;1.10;0.47;;;;;;;22.45;42.47;100650.13;4958661;28;96898;-81
2023/03/25 22:26:16;;;;;;;1.27;0.40;;;;;;;22.45;42.42;100647.41;4970651;28;98607;-80
2023/03/25 22:28:43;;;;;;;0.55;0.32;;;;;;;22.44;42.55;100643.81;4950197;28;97532;-80
2023/03/25 22:31:16;;;;;;;0.75;0.40;;;;;;;22.45;42.50;100652.88;4966398;28;96929;-80
2023/03/25 22:33:44;;;;;;;1.27;0.52;;;;;;;22.44;42.63;100654.75;4953464;28;97174;-80
2023/03/25 22:36:15;;;;;;;0.90;0.47;;;;;;;22.45;42.61;100658.34;4966992;28;97009;-80
2023/03/25 22:38:44;;;;;;;0.65;0.35;;;;;;;22.44;42.50;100659.38;4969786;28;96817;-80
2023/03/25 22:41:14;;;;;;;0.88;0.45;;;;;;;22.44;42.35;100662.13;4968491;28;97180;-81
2023/03/25 22:43:41;;;;;;;0.85;0.45;;;;;;;22.43;42.50;100664.00;4975004;28;97181;-81
2023/03/25 22:46:08;;;;;;;0.93;0.50;;;;;;;22.44;42.55;100662.13;4969582;28;97393;-80
2023/03/25 22:48:38;;;;;;;1.13;0.70;;;;;;;22.42;42.49;100659.59;4973750;28;96966;-81
2023/03/25 22:51:10;;;;;;;0.90;0.40;;;;;;;22.42;42.54;100659.59;4971835;28;96993;-81
2023/03/25 22:53:37;;;;;;;0.52;0.35;;;;;;;22.42;42.50;100667.78;4972344;28;97276;-81
2023/03/25 22:56:08;;;;;;;0.60;0.40;;;;;;;22.42;42.30;100666.94;4972880;28;97819;-80
2023/03/25 22:58:36;;;;;;;0.75;0.40;;;;;;;22.41;42.33;100667.97;4972560;28;96844;-81
2023/03/25 23:01:06;;;;;;;0.90;0.45;;;;;;;22.42;42.34;100666.94;4970009;28;97138;-81
2023/03/25 23:03:33;;;;;;;1.00;0.40;;;;;;;22.42;42.26;100666.94;4970537;28;97491;-80
2023/03/25 23:06:05;;;;;;;0.80;0.40;;;;;;;22.42;42.29;100664.19;4969791;28;96796;-80
2023/03/25 23:08:34;;;;;;;0.82;0.30;;;;;;;22.42;42.27;100677.88;4968813;28;96942;-80
2023/03/25 23:11:07;;;;;;;1.17;0.43;;;;;;;22.42;42.44;100675.16;4982968;28;96491;-80
2023/03/25 23:13:34;;;;;;;1.95;0.50;;;;;;;22.41;42.13;100667.97;4969322;28;98502;-80
2023/03/25 23:16:07;;;;;;;0.52;0.40;;;;;;;22.41;42.18;100671.56;4971534;28;97808;-80
2023/03/25 23:18:35;;;;;;;1.08;0.40;;;;;;;22.39;42.44;100673.66;4967284;28;97604;-80
2023/03/25 23:21:02;;;;;;;0.75;0.40;;;;;;;22.40;42.37;100671.75;4967177;28;96786;-81
2023/03/25 23:23:29;;;;;;;0.95;0.47;;;;;;;22.39;42.29;100670.91;4965293;28;98891;-80
2023/03/25 23:26:13;;;;;;;1.95;0.50;;;;;;;22.40;42.51;100666.28;4971871;28;99506;-80
2023/03/25 23:28:40;;;;;;;1.25;0.40;;;;;;;22.38;42.35;100671.94;4971718;28;96647;-81
2023/03/25 23:31:11;;;;;;;0.98;0.40;;;;;;;22.39;42.19;100670.91;4969628;28;96962;-80
2023/03/25 23:33:39;;;;;;;0.60;0.20;;;;;;;22.39;42.24;100664.59;4953293;28;98931;-80
2023/03/25 23:36:08;;;;;;;1.17;0.60;;;;;;;22.38;42.12;100666.47;4972334;28;97541;-81
2023/03/25 23:38:35;;;;;;;1.00;0.40;;;;;;;22.38;42.20;100671.09;4950551;28;97444;-81
2023/03/25 23:41:15;;;;;;;0.93;0.40;;;;;;;22.39;42.28;100670.06;4957485;28;97475;-80
2023/03/25 23:43:43;;;;;;;0.50;0.40;;;;;;;22.37;42.45;100663.94;4974965;28;99061;-80
2023/03/25 23:46:11;;;;;;;0.93;0.60;;;;;;;22.39;42.35;100670.06;4970361;28;97040;-80
2023/03/25 23:48:41;;;;;;;0.75;0.30;;;;;;;22.40;42.28;100666.28;4985133;28;98409;-80
2023/03/25 23:51:16;;;;;;;0.98;0.50;;;;;;;22.38;42.07;100658.25;4950825;28;97230;-81
2023/03/25 23:53:45;;;;;;;0.85;0.40;;;;;;;22.38;42.22;100661.00;4956991;28;98068;-80
2023/03/25 23:56:14;;;;;;;0.50;0.30;;;;;;;22.38;42.09;100661.00;4968228;28;98899;-80
2023/03/25 23:58:41;;;;;;;0.80;0.40;;;;;;;22.38;42.21;100654.69;4985941;28;96739;-80
